Huvudsida
METAR-TAF:

METAR-TAF

Flygplatser :

Helsingfors-Vanda flygplats

Helsingfors, Finland

latitud: 60-19N, longitud: 024-58E, höjd: 51 m

Aktuellt väderrapport

Denna rapport gjordes för 42 minuter sedan, klockan 01:50 UTC
Vind 1 kt varierande vindriktning
Temperatur 10°C
Fuktighet 93%
Tryck 1016 hPa
Sikt 10 km eller mer
Inga moln under 1 500 m eller inga cumulonimbus

METAR: EFHK 290150Z VRB01KT CAVOK 10/09 Q1016 NOSIG

Tid: 05:32 (02:32 UTC)

Väderprognos

Denna rapport gjordes för 3 timmar och 4 minuter sedan, klockan 23:28 UTC
Prognos gäller från 29 kl. 00 UTC till 29 kl. 24 UTC
Vind 2 kt från nord/nordväst
Sikt 10 km eller mer
Inga moln under 1 500 m eller inga cumulonimbus
Blir
från 29 kl. 07 UTC till 29 kl. 09 UTC
Vind 10 kt från syd
Sannolikhet 30% :
Temporärt
från 29 kl. 09 UTC till 29 kl. 15 UTC
Spridda moln på en höjd av 6000 ft, Cumulonimbus.
regnskurar,

TAF: EFHK 282328Z 2900/2924 34002KT CAVOK BECMG 2907/2909 17010KT PROB30 TEMPO 2909/2915 SHRA SCT060CB

Aktuella väderrapporter och prognoser från 4000 flygplatser (METAR- och TAF-rapporter).

De tillgängliga stationerna syns som gula och röda prickar på kartan.

För musen över prickarna för att se namnen på stationerna.

Klicka sedan för att få väderrapporter och prognoser.

För att ändra kartan: Klicka på de gröna knapparna med ett svart kors på för att zooma in; den gröna knappen med ett streck på för att zooma ut; eller på de gröna pilarna för angränsande kartor.


METAR-TAF: